JNA220 RKPC-RKSS
Flight info
| Callsign | JNA220 |
|---|---|
| Flight time | 0h 48m |
| Altitude | 25000 |
| Route | KAMIT Y722 OLMEN |
| Aircraft | B772/H-SDE2E3FGHIJ5LORVWXY/LB1D1 |
Departure
| Time | 2026-05-05 11:58 |
|---|---|
| Airport | Jeju International Airport (RKPC) |
Arrival
| Time | 2026-05-05 12:47 |
|---|---|
| Airport | Gimpo International Airport (RKSS) |
| Time | Latitude | Longitude | Altitude | Speed | Heading |
|---|---|---|---|---|---|
| 2026-05-05 11:37 | 33.50820 | 126.49487 | 99 ft | 0 kts | 178° |
| 2026-05-05 11:48 | 33.50841 | 126.49487 | 99 ft | 4 kts | 185° |
| 2026-05-05 11:49 | 33.50867 | 126.49491 | 98 ft | 4 kts | 194° |
| 2026-05-05 11:49 | 33.50893 | 126.49501 | 98 ft | 4 kts | 205° |
| 2026-05-05 11:49 | 33.50916 | 126.49518 | 98 ft | 4 kts | 222° |
| 2026-05-05 11:49 | 33.50931 | 126.49541 | 100 ft | 4 kts | 263° |
| 2026-05-05 11:50 | 33.50932 | 126.49551 | 98 ft | 0 kts | 282° |
| 2026-05-05 11:52 | 33.50932 | 126.49550 | 99 ft | 3 kts | 281° |
| 2026-05-05 11:53 | 33.50942 | 126.49493 | 99 ft | 8 kts | 270° |
| 2026-05-05 11:53 | 33.50951 | 126.49427 | 98 ft | 9 kts | 295° |
| 2026-05-05 11:53 | 33.50962 | 126.49407 | 98 ft | 4 kts | 307° |
| 2026-05-05 11:53 | 33.51003 | 126.49364 | 95 ft | 0 kts | 324° |
| 2026-05-05 11:54 | 33.51037 | 126.49323 | 97 ft | 14 kts | 291° |
| 2026-05-05 11:54 | 33.51011 | 126.49209 | 95 ft | 15 kts | 241° |
| 2026-05-05 11:54 | 33.50957 | 126.49105 | 96 ft | 15 kts | 238° |
| 2026-05-05 11:54 | 33.50903 | 126.49001 | 96 ft | 15 kts | 238° |
| 2026-05-05 11:55 | 33.50850 | 126.48897 | 96 ft | 15 kts | 239° |
| 2026-05-05 11:55 | 33.50798 | 126.48793 | 96 ft | 15 kts | 238° |
| 2026-05-05 11:55 | 33.50743 | 126.48691 | 97 ft | 15 kts | 237° |
| 2026-05-05 11:55 | 33.50678 | 126.48558 | 98 ft | 28 kts | 239° |
| 2026-05-05 11:56 | 33.50561 | 126.48331 | 99 ft | 29 kts | 238° |
| 2026-05-05 11:56 | 33.50455 | 126.48128 | 99 ft | 29 kts | 238° |
| 2026-05-05 11:56 | 33.50351 | 126.47924 | 100 ft | 29 kts | 237° |
| 2026-05-05 11:56 | 33.50248 | 126.47719 | 102 ft | 29 kts | 239° |
| 2026-05-05 11:57 | 33.50143 | 126.47518 | 100 ft | 29 kts | 237° |
| 2026-05-05 11:57 | 33.50053 | 126.47348 | 100 ft | 20 kts | 239° |
| 2026-05-05 11:57 | 33.50065 | 126.47265 | 101 ft | 9 kts | 319° |
| 2026-05-05 11:57 | 33.50186 | 126.47266 | 101 ft | 29 kts | 35° |
| 2026-05-05 11:58 | 33.50364 | 126.47571 | 101 ft | 67 kts | 59° |
| 2026-05-05 11:58 | 33.50768 | 126.48355 | 101 ft | 154 kts | 58° |
| 2026-05-05 11:58 | 33.51384 | 126.49558 | 963 ft | 168 kts | 59° |
| 2026-05-05 11:58 | 33.52045 | 126.50650 | 2310 ft | 159 kts | 49° |
| 2026-05-05 11:59 | 33.52892 | 126.51642 | 2606 ft | 184 kts | 44° |
| 2026-05-05 11:59 | 33.53906 | 126.52752 | 2881 ft | 211 kts | 43° |
| 2026-05-05 11:59 | 33.55053 | 126.54014 | 3105 ft | 238 kts | 43° |
| 2026-05-05 11:59 | 33.56344 | 126.55425 | 3380 ft | 260 kts | 39° |
| 2026-05-05 12:00 | 33.57945 | 126.56510 | 3922 ft | 269 kts | 21° |
| 2026-05-05 12:00 | 33.59703 | 126.57293 | 4849 ft | 269 kts | 18° |
| 2026-05-05 12:00 | 33.61474 | 126.58026 | 5688 ft | 269 kts | 15° |
| 2026-05-05 12:00 | 33.63269 | 126.58730 | 6179 ft | 276 kts | 15° |
| 2026-05-05 12:01 | 33.65114 | 126.59486 | 6896 ft | 281 kts | 17° |
| 2026-05-05 12:01 | 33.66961 | 126.60285 | 7750 ft | 282 kts | 18° |
| 2026-05-05 12:01 | 33.68810 | 126.61113 | 8552 ft | 286 kts | 18° |
| 2026-05-05 12:01 | 33.70685 | 126.61971 | 9349 ft | 291 kts | 18° |
| 2026-05-05 12:02 | 33.72583 | 126.62852 | 10146 ft | 295 kts | 19° |
| 2026-05-05 12:02 | 33.74546 | 126.63767 | 10569 ft | 315 kts | 19° |
| 2026-05-05 12:02 | 33.76681 | 126.64773 | 10811 ft | 344 kts | 19° |
| 2026-05-05 12:02 | 33.78949 | 126.65856 | 11505 ft | 356 kts | 19° |
| 2026-05-05 12:03 | 33.81316 | 126.66982 | 12078 ft | 378 kts | 19° |
| 2026-05-05 12:03 | 33.83800 | 126.68167 | 12912 ft | 391 kts | 19° |
| 2026-05-05 12:03 | 33.86363 | 126.69391 | 13905 ft | 400 kts | 19° |
| 2026-05-05 12:03 | 33.88971 | 126.70630 | 14866 ft | 405 kts | 19° |
| 2026-05-05 12:04 | 33.91616 | 126.71871 | 15872 ft | 410 kts | 19° |
| 2026-05-05 12:04 | 33.94300 | 126.73090 | 16841 ft | 415 kts | 15° |
| 2026-05-05 12:04 | 33.97097 | 126.74005 | 17782 ft | 419 kts | 9° |
| 2026-05-05 12:04 | 33.99982 | 126.74547 | 18619 ft | 420 kts | 2° |
| 2026-05-05 12:05 | 34.02931 | 126.74828 | 19194 ft | 428 kts | 1° |
| 2026-05-05 12:05 | 34.05895 | 126.75088 | 20195 ft | 425 kts | 1° |
| 2026-05-05 12:05 | 34.08831 | 126.75362 | 21358 ft | 419 kts | 0° |
| 2026-05-05 12:05 | 34.11676 | 126.75648 | 22548 ft | 413 kts | 0° |
| 2026-05-05 12:06 | 34.14515 | 126.75948 | 23787 ft | 406 kts | 0° |
| 2026-05-05 12:06 | 34.17331 | 126.76257 | 24609 ft | 408 kts | 0° |
| 2026-05-05 12:06 | 34.20191 | 126.76573 | 25111 ft | 418 kts | 0° |
| 2026-05-05 12:06 | 34.23163 | 126.76892 | 25159 ft | 436 kts | 0° |
| 2026-05-05 12:07 | 34.26190 | 126.77219 | 25160 ft | 439 kts | 0° |
| 2026-05-05 12:07 | 34.29239 | 126.77529 | 25159 ft | 440 kts | 0° |
| 2026-05-05 12:07 | 34.32285 | 126.77827 | 25152 ft | 439 kts | 360° |
| 2026-05-05 12:07 | 34.35324 | 126.78127 | 25152 ft | 438 kts | 0° |
| 2026-05-05 12:08 | 34.38366 | 126.78435 | 25152 ft | 438 kts | 0° |
| 2026-05-05 12:08 | 34.41407 | 126.78748 | 25148 ft | 438 kts | 0° |
| 2026-05-05 12:08 | 34.44439 | 126.79065 | 25146 ft | 437 kts | 0° |
| 2026-05-05 12:08 | 34.47468 | 126.79386 | 25145 ft | 437 kts | 0° |
| 2026-05-05 12:09 | 34.50503 | 126.79708 | 25147 ft | 438 kts | 0° |
| 2026-05-05 12:09 | 34.53542 | 126.80032 | 25150 ft | 438 kts | 0° |
| 2026-05-05 12:09 | 34.56580 | 126.80356 | 25158 ft | 438 kts | 0° |
| 2026-05-05 12:09 | 34.59620 | 126.80681 | 25151 ft | 439 kts | 0° |
| 2026-05-05 12:10 | 34.62661 | 126.81007 | 25136 ft | 439 kts | 0° |
| 2026-05-05 12:10 | 34.65702 | 126.81334 | 25144 ft | 439 kts | 0° |
| 2026-05-05 12:10 | 34.68741 | 126.81659 | 25137 ft | 439 kts | 0° |
| 2026-05-05 12:10 | 34.71787 | 126.81986 | 25145 ft | 439 kts | 0° |
| 2026-05-05 12:11 | 34.74825 | 126.82311 | 25142 ft | 439 kts | 0° |
| 2026-05-05 12:11 | 34.77871 | 126.82637 | 25143 ft | 439 kts | 0° |
| 2026-05-05 12:11 | 34.80913 | 126.82965 | 25139 ft | 439 kts | 0° |
| 2026-05-05 12:11 | 34.83951 | 126.83293 | 25138 ft | 439 kts | 0° |
| 2026-05-05 12:12 | 34.86989 | 126.83622 | 25141 ft | 438 kts | 0° |
| 2026-05-05 12:12 | 34.90030 | 126.83953 | 25138 ft | 438 kts | 0° |
| 2026-05-05 12:12 | 34.93029 | 126.84281 | 25131 ft | 438 kts | 1° |
| 2026-05-05 12:12 | 34.96100 | 126.84617 | 25138 ft | 438 kts | 0° |
| 2026-05-05 12:13 | 34.99088 | 126.84945 | 25140 ft | 437 kts | 0° |
| 2026-05-05 12:13 | 35.02119 | 126.85281 | 25139 ft | 437 kts | 1° |
| 2026-05-05 12:13 | 35.05152 | 126.85624 | 25133 ft | 437 kts | 1° |
| 2026-05-05 12:13 | 35.08183 | 126.85962 | 25131 ft | 437 kts | 0° |
| 2026-05-05 12:14 | 35.11212 | 126.86287 | 25134 ft | 437 kts | 0° |
| 2026-05-05 12:14 | 35.14242 | 126.86604 | 25133 ft | 437 kts | 0° |
| 2026-05-05 12:14 | 35.17277 | 126.86912 | 25138 ft | 437 kts | 1° |
| 2026-05-05 12:14 | 35.20302 | 126.87223 | 25133 ft | 437 kts | 1° |
| 2026-05-05 12:15 | 35.23334 | 126.87543 | 25127 ft | 437 kts | 1° |
| 2026-05-05 12:15 | 35.26357 | 126.87870 | 25125 ft | 436 kts | 1° |
| 2026-05-05 12:15 | 35.29376 | 126.88202 | 25128 ft | 436 kts | 1° |
| 2026-05-05 12:15 | 35.32398 | 126.88537 | 25128 ft | 436 kts | 1° |
| 2026-05-05 12:16 | 35.35423 | 126.88875 | 25129 ft | 436 kts | 1° |
| 2026-05-05 12:16 | 35.38439 | 126.89216 | 25133 ft | 435 kts | 1° |
| 2026-05-05 12:16 | 35.41448 | 126.89558 | 25126 ft | 435 kts | 1° |
| 2026-05-05 12:16 | 35.44465 | 126.89904 | 25122 ft | 435 kts | 1° |
| 2026-05-05 12:17 | 35.47477 | 126.90240 | 25118 ft | 435 kts | 1° |
| 2026-05-05 12:17 | 35.50494 | 126.90566 | 25120 ft | 434 kts | 1° |
| 2026-05-05 12:17 | 35.53507 | 126.90879 | 25124 ft | 434 kts | 1° |
| 2026-05-05 12:17 | 35.56514 | 126.91185 | 25127 ft | 434 kts | 2° |
| 2026-05-05 12:18 | 35.59520 | 126.91498 | 25126 ft | 434 kts | 2° |
| 2026-05-05 12:18 | 35.62530 | 126.91821 | 25114 ft | 434 kts | 2° |
| 2026-05-05 12:18 | 35.65536 | 126.92151 | 25114 ft | 434 kts | 2° |
| 2026-05-05 12:18 | 35.68542 | 126.92485 | 25112 ft | 434 kts | 2° |
| 2026-05-05 12:19 | 35.71506 | 126.92816 | 25109 ft | 433 kts | 2° |
| 2026-05-05 12:19 | 35.74507 | 126.93153 | 25115 ft | 433 kts | 3° |
| 2026-05-05 12:19 | 35.77510 | 126.93493 | 25107 ft | 432 kts | 3° |
| 2026-05-05 12:19 | 35.80503 | 126.93836 | 25104 ft | 432 kts | 3° |
| 2026-05-05 12:20 | 35.83497 | 126.94182 | 25102 ft | 432 kts | 3° |
| 2026-05-05 12:20 | 35.86489 | 126.94517 | 25103 ft | 431 kts | 2° |
| 2026-05-05 12:20 | 35.89488 | 126.94842 | 25105 ft | 431 kts | 2° |
| 2026-05-05 12:20 | 35.92475 | 126.95156 | 25099 ft | 431 kts | 2° |
| 2026-05-05 12:21 | 35.95464 | 126.95466 | 25102 ft | 431 kts | 2° |
| 2026-05-05 12:21 | 35.98445 | 126.95781 | 25107 ft | 430 kts | 3° |
| 2026-05-05 12:21 | 36.01430 | 126.96105 | 25095 ft | 430 kts | 3° |
| 2026-05-05 12:21 | 36.04412 | 126.96436 | 25099 ft | 430 kts | 3° |
| 2026-05-05 12:22 | 36.07386 | 126.96770 | 25090 ft | 429 kts | 3° |
| 2026-05-05 12:22 | 36.10356 | 126.97104 | 24748 ft | 431 kts | 3° |
| 2026-05-05 12:22 | 36.13346 | 126.97444 | 24238 ft | 428 kts | 3° |
| 2026-05-05 12:22 | 36.16276 | 126.97781 | 23967 ft | 418 kts | 3° |
| 2026-05-05 12:23 | 36.19169 | 126.98112 | 23726 ft | 418 kts | 4° |
| 2026-05-05 12:23 | 36.22076 | 126.98446 | 23444 ft | 421 kts | 4° |
| 2026-05-05 12:23 | 36.24961 | 126.98776 | 23145 ft | 421 kts | 4° |
| 2026-05-05 12:23 | 36.27881 | 126.99117 | 22854 ft | 421 kts | 4° |
| 2026-05-05 12:24 | 36.30790 | 126.99462 | 22560 ft | 420 kts | 4° |
| 2026-05-05 12:24 | 36.33702 | 126.99799 | 22263 ft | 418 kts | 3° |
| 2026-05-05 12:24 | 36.36587 | 127.00117 | 21975 ft | 416 kts | 4° |
| 2026-05-05 12:24 | 36.39460 | 127.00376 | 21695 ft | 413 kts | 360° |
| 2026-05-05 12:25 | 36.42314 | 127.00296 | 21403 ft | 408 kts | 355° |
| 2026-05-05 12:25 | 36.45155 | 127.00130 | 21117 ft | 407 kts | 355° |
| 2026-05-05 12:25 | 36.47979 | 126.99988 | 20846 ft | 406 kts | 356° |
| 2026-05-05 12:25 | 36.50799 | 126.99879 | 20557 ft | 404 kts | 357° |
| 2026-05-05 12:26 | 36.53608 | 126.99775 | 20285 ft | 403 kts | 357° |
| 2026-05-05 12:26 | 36.56412 | 126.99665 | 20020 ft | 402 kts | 357° |
| 2026-05-05 12:26 | 36.59197 | 126.99557 | 19751 ft | 400 kts | 357° |
| 2026-05-05 12:26 | 36.61970 | 126.99459 | 19490 ft | 399 kts | 358° |
| 2026-05-05 12:27 | 36.64746 | 126.99368 | 19218 ft | 398 kts | 358° |
| 2026-05-05 12:27 | 36.66576 | 126.99304 | 19043 ft | 398 kts | 358° |
| 2026-05-05 12:27 | 36.69341 | 126.99197 | 18774 ft | 395 kts | 354° |
| 2026-05-05 12:27 | 36.72050 | 126.99087 | 18472 ft | 387 kts | 4° |
| 2026-05-05 12:28 | 36.74649 | 127.00007 | 18179 ft | 393 kts | 28° |
| 2026-05-05 12:28 | 36.76757 | 127.02126 | 17872 ft | 386 kts | 46° |
| 2026-05-05 12:28 | 36.78702 | 127.04358 | 17392 ft | 379 kts | 31° |
| 2026-05-05 12:28 | 36.81169 | 127.05425 | 16826 ft | 379 kts | 4° |
| 2026-05-05 12:29 | 36.83677 | 127.05037 | 16232 ft | 354 kts | 338° |
| 2026-05-05 12:29 | 36.85932 | 127.03974 | 15632 ft | 349 kts | 342° |
| 2026-05-05 12:29 | 36.88331 | 127.03297 | 15137 ft | 356 kts | 349° |
| 2026-05-05 12:29 | 36.90786 | 127.02814 | 14622 ft | 356 kts | 351° |
| 2026-05-05 12:30 | 36.93241 | 127.02382 | 14105 ft | 356 kts | 351° |
| 2026-05-05 12:30 | 36.95682 | 127.01948 | 13638 ft | 355 kts | 350° |
| 2026-05-05 12:30 | 36.98123 | 127.01496 | 13504 ft | 357 kts | 350° |
| 2026-05-05 12:30 | 37.00609 | 127.01017 | 13210 ft | 362 kts | 349° |
| 2026-05-05 12:31 | 37.03054 | 127.00538 | 12976 ft | 362 kts | 349° |
| 2026-05-05 12:31 | 37.05549 | 127.00040 | 12705 ft | 361 kts | 349° |
| 2026-05-05 12:31 | 37.08029 | 126.99541 | 12451 ft | 361 kts | 349° |
| 2026-05-05 12:31 | 37.10497 | 126.99041 | 12190 ft | 360 kts | 349° |
| 2026-05-05 12:32 | 37.12969 | 126.98539 | 11961 ft | 357 kts | 349° |
| 2026-05-05 12:32 | 37.15399 | 126.98046 | 11982 ft | 353 kts | 349° |
| 2026-05-05 12:32 | 37.17796 | 126.97558 | 11958 ft | 342 kts | 349° |
| 2026-05-05 12:32 | 37.20089 | 126.97090 | 11953 ft | 325 kts | 348° |
| 2026-05-05 12:33 | 37.22272 | 126.96642 | 11953 ft | 309 kts | 348° |
| 2026-05-05 12:33 | 37.24369 | 126.96212 | 11970 ft | 303 kts | 348° |
| 2026-05-05 12:33 | 37.26444 | 126.95788 | 11815 ft | 302 kts | 348° |
| 2026-05-05 12:33 | 37.28499 | 126.95376 | 11413 ft | 293 kts | 348° |
| 2026-05-05 12:34 | 37.30485 | 126.94983 | 10531 ft | 287 kts | 347° |
| 2026-05-05 12:34 | 37.32458 | 126.94591 | 9546 ft | 286 kts | 347° |
| 2026-05-05 12:34 | 37.34418 | 126.94195 | 8644 ft | 284 kts | 346° |
| 2026-05-05 12:34 | 37.36384 | 126.93788 | 8316 ft | 288 kts | 346° |
| 2026-05-05 12:35 | 37.38348 | 126.93376 | 8118 ft | 287 kts | 346° |
| 2026-05-05 12:35 | 37.40262 | 126.92815 | 8034 ft | 284 kts | 332° |
| 2026-05-05 12:35 | 37.41760 | 126.91324 | 7998 ft | 270 kts | 303° |
| 2026-05-05 12:35 | 37.42661 | 126.89226 | 7988 ft | 270 kts | 289° |
| 2026-05-05 12:36 | 37.43372 | 126.87080 | 7993 ft | 277 kts | 289° |
| 2026-05-05 12:36 | 37.44131 | 126.84854 | 7997 ft | 275 kts | 290° |
| 2026-05-05 12:36 | 37.44890 | 126.82654 | 7996 ft | 273 kts | 290° |
| 2026-05-05 12:36 | 37.45633 | 126.80507 | 7973 ft | 266 kts | 291° |
| 2026-05-05 12:37 | 37.46344 | 126.78364 | 7803 ft | 262 kts | 286° |
| 2026-05-05 12:37 | 37.46931 | 126.76189 | 7308 ft | 260 kts | 285° |
| 2026-05-05 12:37 | 37.47495 | 126.74076 | 7113 ft | 251 kts | 285° |
| 2026-05-05 12:37 | 37.48063 | 126.71974 | 7014 ft | 254 kts | 285° |
| 2026-05-05 12:38 | 37.48636 | 126.69892 | 7003 ft | 251 kts | 284° |
| 2026-05-05 12:38 | 37.49002 | 126.67757 | 6827 ft | 247 kts | 274° |
| 2026-05-05 12:38 | 37.49193 | 126.65620 | 6314 ft | 245 kts | 273° |
| 2026-05-05 12:38 | 37.49387 | 126.63487 | 5738 ft | 244 kts | 274° |
| 2026-05-05 12:39 | 37.49590 | 126.61402 | 5212 ft | 242 kts | 274° |
| 2026-05-05 12:39 | 37.50087 | 126.59392 | 4612 ft | 245 kts | 300° |
| 2026-05-05 12:39 | 37.51261 | 126.57813 | 4259 ft | 247 kts | 311° |
| 2026-05-05 12:39 | 37.52444 | 126.56338 | 4087 ft | 231 kts | 309° |
| 2026-05-05 12:40 | 37.53544 | 126.54924 | 4019 ft | 224 kts | 308° |
| 2026-05-05 12:40 | 37.54634 | 126.53522 | 4008 ft | 225 kts | 309° |
| 2026-05-05 12:40 | 37.55869 | 126.52327 | 3973 ft | 224 kts | 333° |
| 2026-05-05 12:40 | 37.57383 | 126.52123 | 3984 ft | 222 kts | 8° |
| 2026-05-05 12:41 | 37.58735 | 126.52995 | 4001 ft | 219 kts | 37° |
| 2026-05-05 12:41 | 37.59837 | 126.54295 | 3999 ft | 215 kts | 40° |
| 2026-05-05 12:41 | 37.60900 | 126.55608 | 3937 ft | 215 kts | 41° |
| 2026-05-05 12:41 | 37.61969 | 126.56949 | 3729 ft | 217 kts | 41° |
| 2026-05-05 12:42 | 37.63035 | 126.58288 | 3545 ft | 215 kts | 41° |
| 2026-05-05 12:42 | 37.64074 | 126.59584 | 3318 ft | 203 kts | 40° |
| 2026-05-05 12:42 | 37.65085 | 126.60787 | 3236 ft | 201 kts | 40° |
| 2026-05-05 12:42 | 37.66081 | 126.62055 | 3018 ft | 206 kts | 48° |
| 2026-05-05 12:43 | 37.66606 | 126.63644 | 2783 ft | 192 kts | 88° |
| 2026-05-05 12:43 | 37.66270 | 126.65208 | 2589 ft | 184 kts | 125° |
| 2026-05-05 12:43 | 37.65494 | 126.66465 | 2490 ft | 181 kts | 129° |
| 2026-05-05 12:43 | 37.64686 | 126.67659 | 2236 ft | 175 kts | 135° |
| 2026-05-05 12:44 | 37.63851 | 126.68739 | 2012 ft | 170 kts | 137° |
| 2026-05-05 12:44 | 37.63010 | 126.69800 | 1775 ft | 170 kts | 137° |
| 2026-05-05 12:44 | 37.62167 | 126.70857 | 1547 ft | 170 kts | 136° |
| 2026-05-05 12:44 | 37.61367 | 126.71863 | 1326 ft | 155 kts | 135° |
| 2026-05-05 12:45 | 37.60646 | 126.72773 | 1146 ft | 141 kts | 134° |
| 2026-05-05 12:45 | 37.59948 | 126.73567 | 946 ft | 134 kts | 144° |
| 2026-05-05 12:45 | 37.59276 | 126.74381 | 756 ft | 134 kts | 131° |
| 2026-05-05 12:45 | 37.58652 | 126.75256 | 593 ft | 135 kts | 135° |
| 2026-05-05 12:46 | 37.57988 | 126.76075 | 417 ft | 133 kts | 136° |
| 2026-05-05 12:46 | 37.57340 | 126.76913 | 251 ft | 134 kts | 135° |
| 2026-05-05 12:46 | 37.56658 | 126.77762 | 100 ft | 134 kts | 135° |
| 2026-05-05 12:46 | 37.56057 | 126.78530 | 59 ft | 109 kts | 136° |
| 2026-05-05 12:47 | 37.55615 | 126.79081 | 56 ft | 42 kts | 135° |
| 2026-05-05 12:47 | 37.55447 | 126.79391 | 59 ft | 37 kts | 97° |
| 2026-05-05 12:47 | 37.55444 | 126.79642 | 65 ft | 26 kts | 76° |
| 2026-05-05 12:47 | 37.55489 | 126.79766 | 59 ft | 14 kts | 81° |
| 2026-05-05 12:48 | 37.55465 | 126.79907 | 61 ft | 18 kts | 108° |
| 2026-05-05 12:48 | 37.55421 | 126.80073 | 62 ft | 20 kts | 103° |
| 2026-05-05 12:48 | 37.55425 | 126.80237 | 62 ft | 17 kts | 56° |
| 2026-05-05 12:48 | 37.55515 | 126.80353 | 65 ft | 14 kts | 34° |
| 2026-05-05 12:49 | 37.55614 | 126.80310 | 61 ft | 18 kts | 323° |
| 2026-05-05 12:49 | 37.55712 | 126.80191 | 63 ft | 18 kts | 315° |
| 2026-05-05 12:49 | 37.55797 | 126.80088 | 66 ft | 11 kts | 324° |
| 2026-05-05 12:49 | 37.55838 | 126.80103 | 64 ft | 7 kts | 32° |
| 2026-05-05 12:50 | 37.55863 | 126.80128 | 66 ft | 3 kts | 41° |
| 2026-05-05 12:50 | 37.55876 | 126.80143 | 70 ft | 3 kts | 42° |
| 2026-05-05 12:50 | 37.55884 | 126.80152 | 64 ft | 0 kts | 43° |
| 2026-05-05 12:50 | 37.55887 | 126.80156 | 64 ft | 0 kts | 43° |